Time;durP1;ratioP1;P1;durP2;ratioP2;P2;SDS_P1;SDS_P2;PMS_P1;PMS_P2;Temp;Humidity;BMP_temperature;BMP_pressure;BME280_temperature;BME280_humidity;BME280_pressure;Samples;Min_cycle;Max_cycle;Signal;HPM_P1;HPM_P2
2021/04/24 00:00:33;;;;;;;12.07;3.90;;;;;;;;;;5086231;28;20053;-49
2021/04/24 00:03:01;;;;;;;13.00;3.47;;;;;;;;;;5082335;28;20286;-53
2021/04/24 00:05:28;;;;;;;14.30;4.53;;;;;;;;;;5083064;28;20041;-52
2021/04/24 00:08:05;;;;;;;10.70;3.30;;;;;;;;;;5080706;28;20032;-54
2021/04/24 00:10:32;;;;;;;10.85;3.25;;;;;;;;;;5085953;28;20036;-49
2021/04/24 00:12:58;;;;;;;8.88;3.92;;;;;;;;;;5082462;28;20101;-51
2021/04/24 00:15:24;;;;;;;11.20;3.67;;;;;;;;;;5085364;28;20044;-50
2021/04/24 00:17:53;;;;;;;8.82;3.75;;;;;;;;;;5083218;28;20032;-54
2021/04/24 00:20:20;;;;;;;13.63;3.85;;;;;;;;;;5063972;28;20033;-53
2021/04/24 00:22:46;;;;;;;9.70;3.47;;;;;;;;;;5063828;28;20125;-50
2021/04/24 00:25:13;;;;;;;11.40;3.67;;;;;;;;;;5079886;28;20097;-53
2021/04/24 00:27:41;;;;;;;10.68;3.65;;;;;;;;;;5084170;28;20142;-50
2021/04/24 00:30:08;;;;;;;11.85;3.88;;;;;;;;;;5081293;28;20033;-52
2021/04/24 00:32:34;;;;;;;15.88;3.70;;;;;;;;;;5085278;28;20082;-48
2021/04/24 00:35:01;;;;;;;13.25;3.35;;;;;;;;;;5080810;28;20028;-51
2021/04/24 00:37:36;;;;;;;15.02;3.95;;;;;;;;;;5085401;28;20032;-50
2021/04/24 00:40:02;;;;;;;10.48;2.95;;;;;;;;;;5080872;28;20112;-52
2021/04/24 00:42:28;;;;;;;16.35;3.63;;;;;;;;;;5085379;28;20036;-53
2021/04/24 00:44:55;;;;;;;10.90;3.60;;;;;;;;;;5080306;28;20052;-54
2021/04/24 00:47:23;;;;;;;9.35;3.40;;;;;;;;;;5082623;28;20041;-50
2021/04/24 00:49:49;;;;;;;14.18;3.90;;;;;;;;;;5079688;28;20047;-48
2021/04/24 00:52:17;;;;;;;7.63;3.47;;;;;;;;;;5083723;28;20048;-50
2021/04/24 00:54:43;;;;;;;9.18;3.47;;;;;;;;;;5081427;28;20038;-51
2021/04/24 00:57:09;;;;;;;10.25;3.42;;;;;;;;;;5085218;28;20040;-47
2021/04/24 00:59:36;;;;;;;11.35;3.65;;;;;;;;;;5071174;28;20054;-51
2021/04/24 01:02:03;;;;;;;9.15;3.38;;;;;;;;;;5085065;28;20060;-47
2021/04/24 01:04:29;;;;;;;10.43;3.63;;;;;;;;;;5084592;28;20032;-52
2021/04/24 01:06:55;;;;;;;18.00;3.95;;;;;;;;;;5082655;28;20049;-49
2021/04/24 01:09:28;;;;;;;10.57;3.92;;;;;;;;;;5082321;28;20116;-52
2021/04/24 01:11:54;;;;;;;13.05;3.90;;;;;;;;;;5079874;28;20057;-51
2021/04/24 01:14:20;;;;;;;10.80;3.75;;;;;;;;;;5084413;28;20052;-48
2021/04/24 01:16:47;;;;;;;10.88;3.90;;;;;;;;;;5080584;28;20040;-53
2021/04/24 01:19:23;;;;;;;12.07;4.53;;;;;;;;;;5084962;28;20051;-48
2021/04/24 01:21:49;;;;;;;12.20;3.03;;;;;;;;;;5078463;28;20089;-49
2021/04/24 01:24:17;;;;;;;11.90;3.60;;;;;;;;;;5080138;28;20052;-50
2021/04/24 01:26:43;;;;;;;9.75;4.07;;;;;;;;;;5077358;28;20059;-52
2021/04/24 01:29:11;;;;;;;13.10;4.25;;;;;;;;;;5081260;28;20040;-48
2021/04/24 01:31:37;;;;;;;14.43;4.05;;;;;;;;;;5076870;28;20043;-49
2021/04/24 01:34:05;;;;;;;8.93;3.28;;;;;;;;;;5080921;28;20066;-48
2021/04/24 01:36:31;;;;;;;10.57;3.95;;;;;;;;;;5081531;28;20033;-49
2021/04/24 01:39:26;;;;;;;10.52;3.08;;;;;;;;;;5083663;28;20067;-52
2021/04/24 01:41:53;;;;;;;7.88;3.40;;;;;;;;;;5078580;28;20037;-51
2021/04/24 01:44:19;;;;;;;14.50;3.20;;;;;;;;;;5084556;28;20029;-51
2021/04/24 01:46:45;;;;;;;10.55;3.60;;;;;;;;;;5082415;28;20117;-52
2021/04/24 01:49:13;;;;;;;10.52;3.40;;;;;;;;;;5084920;28;20033;-51
2021/04/24 01:51:39;;;;;;;12.95;3.53;;;;;;;;;;5080009;28;20078;-50
2021/04/24 01:54:05;;;;;;;10.05;3.53;;;;;;;;;;5084726;28;20044;-50
2021/04/24 01:56:41;;;;;;;13.30;3.80;;;;;;;;;;5085642;28;20121;-51
2021/04/24 01:59:20;;;;;;;10.95;3.85;;;;;;;;;;5085626;28;20025;-50
2021/04/24 02:01:48;;;;;;;10.02;3.45;;;;;;;;;;5064816;28;20041;-49
2021/04/24 02:04:14;;;;;;;10.25;4.05;;;;;;;;;;5075797;28;20059;-46
2021/04/24 02:06:40;;;;;;;14.50;3.53;;;;;;;;;;5087021;28;20036;-50
2021/04/24 02:09:08;;;;;;;9.38;3.78;;;;;;;;;;5082054;28;20063;-50
2021/04/24 02:11:34;;;;;;;11.30;3.90;;;;;;;;;;5087049;28;20032;-47
2021/04/24 02:14:00;;;;;;;10.10;3.50;;;;;;;;;;5083006;28;20040;-48
2021/04/24 02:16:26;;;;;;;12.35;3.97;;;;;;;;;;5086547;28;20048;-48
2021/04/24 02:18:58;;;;;;;8.82;3.45;;;;;;;;;;5083396;28;20137;-52
2021/04/24 02:21:24;;;;;;;9.15;4.07;;;;;;;;;;5086610;28;20036;-49
2021/04/24 02:23:51;;;;;;;10.65;4.15;;;;;;;;;;5085125;28;20048;-53
2021/04/24 02:26:17;;;;;;;10.65;4.32;;;;;;;;;;5086676;28;20076;-50
2021/04/24 02:28:44;;;;;;;16.15;4.95;;;;;;;;;;5083089;28;20047;-48
2021/04/24 02:31:11;;;;;;;10.32;4.38;;;;;;;;;;5086966;28;20068;-51
2021/04/24 02:33:37;;;;;;;13.95;4.53;;;;;;;;;;5082239;28;20067;-52
2021/04/24 02:36:04;;;;;;;14.55;4.72;;;;;;;;;;5085816;28;20077;-48
2021/04/24 02:38:32;;;;;;;11.02;4.13;;;;;;;;;;5081486;28;20041;-52
2021/04/24 02:40:59;;;;;;;15.63;5.22;;;;;;;;;;5086176;28;20036;-47
2021/04/24 02:43:25;;;;;;;14.40;5.28;;;;;;;;;;5084430;28;20040;-49
2021/04/24 02:45:52;;;;;;;13.30;4.75;;;;;;;;;;5082628;28;20130;-49
2021/04/24 02:48:18;;;;;;;17.60;4.80;;;;;;;;;;5084084;28;20057;-49
2021/04/24 02:50:45;;;;;;;11.10;4.70;;;;;;;;;;5083727;28;20072;-47
2021/04/24 02:53:12;;;;;;;12.52;4.88;;;;;;;;;;5086820;28;20025;-48
2021/04/24 02:55:38;;;;;;;10.35;3.85;;;;;;;;;;5082824;28;20033;-53
2021/04/24 02:58:05;;;;;;;13.80;4.60;;;;;;;;;;5084410;28;20040;-51
2021/04/24 03:00:31;;;;;;;14.70;4.65;;;;;;;;;;5081160;28;20166;-51
2021/04/24 03:03:01;;;;;;;13.00;4.25;;;;;;;;;;5087714;28;20067;-50
2021/04/24 03:05:27;;;;;;;10.88;4.10;;;;;;;;;;5082032;28;20047;-48
2021/04/24 03:07:55;;;;;;;12.10;4.15;;;;;;;;;;5085569;28;20040;-51
2021/04/24 03:10:22;;;;;;;10.10;4.22;;;;;;;;;;5082007;28;20048;-49
2021/04/24 03:12:49;;;;;;;12.30;4.55;;;;;;;;;;5086388;28;20073;-49
2021/04/24 03:15:15;;;;;;;13.90;4.60;;;;;;;;;;5079728;28;20097;-50
2021/04/24 03:17:49;;;;;;;9.38;3.70;;;;;;;;;;5083982;28;20032;-49
2021/04/24 03:20:16;;;;;;;11.55;4.13;;;;;;;;;;5080485;28;20062;-50
2021/04/24 03:22:42;;;;;;;11.57;4.03;;;;;;;;;;5084837;28;20052;-53
2021/04/24 03:25:09;;;;;;;17.88;4.65;;;;;;;;;;5082453;28;20028;-53
2021/04/24 03:27:38;;;;;;;12.93;4.30;;;;;;;;;;5083061;28;20035;-48
2021/04/24 03:30:07;;;;;;;13.20;4.57;;;;;;;;;;5085809;28;20044;-51
2021/04/24 03:32:33;;;;;;;10.30;4.20;;;;;;;;;;5079717;28;20050;-50
2021/04/24 03:34:59;;;;;;;12.00;4.00;;;;;;;;;;5084874;28;20040;-48
2021/04/24 03:37:38;;;;;;;10.48;3.70;;;;;;;;;;5074545;28;20091;-48
2021/04/24 03:40:05;;;;;;;12.25;3.75;;;;;;;;;;5083654;28;20044;-49
2021/04/24 03:42:31;;;;;;;13.02;3.95;;;;;;;;;;5081802;28;20063;-48
2021/04/24 03:44:58;;;;;;;11.73;4.22;;;;;;;;;;5084717;28;20044;-51
2021/04/24 03:47:25;;;;;;;13.45;3.70;;;;;;;;;;5078659;28;20044;-49
2021/04/24 03:49:51;;;;;;;12.38;4.32;;;;;;;;;;5085563;28;20032;-50
2021/04/24 03:52:17;;;;;;;13.75;3.78;;;;;;;;;;5082020;28;20138;-52
2021/04/24 03:54:43;;;;;;;11.45;4.63;;;;;;;;;;5085434;28;20045;-47
2021/04/24 03:57:09;;;;;;;10.05;4.25;;;;;;;;;;5082135;28;20052;-48
2021/04/24 03:59:35;;;;;;;13.15;4.80;;;;;;;;;;5084302;28;20043;-47
2021/04/24 04:02:02;;;;;;;12.07;3.97;;;;;;;;;;5079353;28;20043;-48
2021/04/24 04:04:28;;;;;;;11.73;4.35;;;;;;;;;;5085939;28;20113;-53
2021/04/24 04:06:54;;;;;;;11.65;4.53;;;;;;;;;;5078956;28;20052;-49
2021/04/24 04:09:23;;;;;;;14.93;4.40;;;;;;;;;;5085137;28;20032;-50
2021/04/24 04:11:49;;;;;;;12.60;4.38;;;;;;;;;;5084274;28;20047;-52
2021/04/24 04:14:15;;;;;;;13.43;4.20;;;;;;;;;;5081368;28;20072;-49
2021/04/24 04:16:41;;;;;;;12.95;4.82;;;;;;;;;;5085218;28;20036;-48
2021/04/24 04:19:08;;;;;;;11.43;4.10;;;;;;;;;;5079035;28;20044;-48
2021/04/24 04:21:35;;;;;;;9.20;3.88;;;;;;;;;;5085075;28;20052;-51
2021/04/24 04:24:01;;;;;;;11.05;4.18;;;;;;;;;;5081238;28;20051;-53
2021/04/24 04:26:27;;;;;;;15.18;4.97;;;;;;;;;;5084971;28;20028;-53
2021/04/24 04:29:12;;;;;;;11.52;4.18;;;;;;;;;;5081654;28;20040;-50
2021/04/24 04:31:38;;;;;;;13.93;4.18;;;;;;;;;;5085094;28;20039;-51
2021/04/24 04:34:04;;;;;;;11.68;4.10;;;;;;;;;;5082351;28;20048;-50
2021/04/24 04:36:31;;;;;;;9.80;4.13;;;;;;;;;;5084637;28;20036;-54
2021/04/24 04:39:13;;;;;;;16.13;4.53;;;;;;;;;;5081891;28;20044;-53
2021/04/24 04:41:39;;;;;;;10.15;3.95;;;;;;;;;;5084064;28;20040;-52
2021/04/24 04:44:09;;;;;;;14.52;4.28;;;;;;;;;;5081534;28;20076;-54
2021/04/24 04:46:35;;;;;;;12.57;4.55;;;;;;;;;;5086161;28;20036;-50
2021/04/24 04:49:03;;;;;;;16.15;4.22;;;;;;;;;;5081884;28;20025;-54
2021/04/24 04:51:29;;;;;;;14.55;4.53;;;;;;;;;;5085024;28;20032;-48
2021/04/24 04:53:55;;;;;;;11.43;4.18;;;;;;;;;;5079624;28;20040;-52
2021/04/24 04:56:21;;;;;;;12.10;4.30;;;;;;;;;;5084746;28;20036;-52
2021/04/24 04:58:50;;;;;;;13.50;4.50;;;;;;;;;;5082103;28;20067;-51
2021/04/24 05:01:17;;;;;;;11.70;3.88;;;;;;;;;;5084920;28;20043;-50
2021/04/24 05:03:44;;;;;;;13.43;4.00;;;;;;;;;;5082515;28;20032;-50
2021/04/24 05:06:10;;;;;;;12.35;4.07;;;;;;;;;;5080315;28;20040;-49
2021/04/24 05:08:38;;;;;;;12.68;4.40;;;;;;;;;;5084551;28;20035;-47
2021/04/24 05:11:05;;;;;;;15.13;3.95;;;;;;;;;;5082803;28;20043;-52
2021/04/24 05:13:31;;;;;;;13.18;4.10;;;;;;;;;;5085531;28;20086;-50
2021/04/24 05:15:57;;;;;;;12.50;4.45;;;;;;;;;;5081150;28;20052;-48
2021/04/24 05:18:28;;;;;;;10.43;3.50;;;;;;;;;;5076815;28;20060;-52
2021/04/24 05:20:54;;;;;;;9.90;4.03;;;;;;;;;;5082389;28;20068;-46
2021/04/24 05:23:20;;;;;;;15.20;3.72;;;;;;;;;;5083790;28;20065;-52
2021/04/24 05:25:46;;;;;;;10.35;4.07;;;;;;;;;;5082406;28;20150;-52
2021/04/24 05:28:14;;;;;;;11.23;4.43;;;;;;;;;;5084291;28;20040;-51
2021/04/24 05:30:40;;;;;;;10.27;3.90;;;;;;;;;;5076936;28;20043;-48
2021/04/24 05:33:08;;;;;;;11.00;3.80;;;;;;;;;;5081954;28;20052;-50
2021/04/24 05:35:34;;;;;;;10.80;4.55;;;;;;;;;;5076913;28;20059;-51
2021/04/24 05:38:02;;;;;;;17.67;4.25;;;;;;;;;;5081833;28;20033;-50
2021/04/24 05:40:28;;;;;;;9.52;3.13;;;;;;;;;;5079411;28;20033;-48
2021/04/24 05:42:54;;;;;;;10.35;3.67;;;;;;;;;;5080846;28;20047;-48
2021/04/24 05:45:21;;;;;;;12.43;3.58;;;;;;;;;;5081930;28;20036;-50
2021/04/24 05:47:49;;;;;;;9.43;3.70;;;;;;;;;;5079817;28;20056;-50
2021/04/24 05:50:16;;;;;;;12.43;3.20;;;;;;;;;;5072800;28;20056;-52
2021/04/24 05:52:42;;;;;;;14.48;4.30;;;;;;;;;;5077940;28;20038;-51
2021/04/24 05:55:09;;;;;;;9.63;4.07;;;;;;;;;;5081533;28;20046;-53
2021/04/24 05:57:36;;;;;;;8.77;3.33;;;;;;;;;;5081522;28;20098;-50
2021/04/24 06:00:04;;;;;;;9.50;3.10;;;;;;;;;;5081036;28;20021;-48
2021/04/24 06:02:38;;;;;;;8.80;3.15;;;;;;;;;;5076488;28;20044;-51
2021/04/24 06:05:04;;;;;;;12.40;4.07;;;;;;;;;;5076088;28;20053;-50
2021/04/24 06:07:36;;;;;;;11.98;3.22;;;;;;;;;;5071077;28;20036;-53
2021/04/24 06:10:02;;;;;;;8.75;2.92;;;;;;;;;;5078223;28;20036;-55
2021/04/24 06:12:28;;;;;;;9.98;3.92;;;;;;;;;;5080438;28;20052;-53
2021/04/24 06:14:55;;;;;;;12.38;3.20;;;;;;;;;;5079195;28;20048;-54
2021/04/24 06:17:21;;;;;;;9.32;2.97;;;;;;;;;;5077959;28;20044;-51
2021/04/24 06:19:48;;;;;;;13.18;3.00;;;;;;;;;;5081331;28;20114;-49
2021/04/24 06:22:14;;;;;;;11.90;3.15;;;;;;;;;;5082356;28;20056;-52
2021/04/24 06:24:40;;;;;;;7.38;2.65;;;;;;;;;;5086703;28;20055;-52
2021/04/24 06:27:06;;;;;;;10.30;2.72;;;;;;;;;;5082664;28;20075;-50
2021/04/24 06:29:32;;;;;;;10.07;2.40;;;;;;;;;;5077946;28;20094;-55
2021/04/24 06:31:58;;;;;;;7.35;2.20;;;;;;;;;;5082740;28;20028;-51
2021/04/24 06:34:24;;;;;;;5.80;2.20;;;;;;;;;;5080539;28;20044;-53
2021/04/24 06:36:51;;;;;;;7.45;2.80;;;;;;;;;;5083331;28;20044;-50
2021/04/24 06:39:19;;;;;;;9.35;2.30;;;;;;;;;;5079554;28;20036;-53
2021/04/24 06:41:45;;;;;;;8.23;2.07;;;;;;;;;;5083903;28;20048;-49
2021/04/24 06:44:11;;;;;;;4.97;2.05;;;;;;;;;;5080468;28;20285;-54
2021/04/24 06:46:37;;;;;;;7.03;2.15;;;;;;;;;;5084673;28;20051;-48
2021/04/24 06:49:04;;;;;;;7.40;2.33;;;;;;;;;;5085214;28;20051;-46
2021/04/24 06:51:30;;;;;;;9.30;2.30;;;;;;;;;;5081897;28;20106;-51
2021/04/24 06:53:57;;;;;;;11.25;2.53;;;;;;;;;;5063504;28;20042;-53
2021/04/24 06:56:23;;;;;;;10.45;2.55;;;;;;;;;;5085002;28;20055;-49
2021/04/24 06:58:49;;;;;;;5.90;2.17;;;;;;;;;;5073740;28;20024;-50
2021/04/24 07:01:15;;;;;;;6.28;2.33;;;;;;;;;;5089575;28;20048;-53
2021/04/24 07:03:41;;;;;;;7.50;2.40;;;;;;;;;;5084683;28;20052;-49
2021/04/24 07:06:07;;;;;;;6.07;2.30;;;;;;;;;;5083312;28;20055;-56
2021/04/24 07:08:35;;;;;;;6.25;2.40;;;;;;;;;;5086123;28;20044;-53
2021/04/24 07:11:02;;;;;;;7.05;2.22;;;;;;;;;;5075071;28;20076;-55
2021/04/24 07:13:28;;;;;;;8.85;2.42;;;;;;;;;;5077816;28;20068;-51
2021/04/24 07:15:54;;;;;;;7.72;2.65;;;;;;;;;;5078063;28;20032;-53
2021/04/24 07:18:27;;;;;;;8.80;2.40;;;;;;;;;;5089102;27;20146;-55
2021/04/24 07:20:53;;;;;;;6.82;2.17;;;;;;;;;;5081797;28;20090;-59
2021/04/24 07:23:19;;;;;;;6.53;2.20;;;;;;;;;;5075583;28;20040;-54
2021/04/24 07:25:45;;;;;;;4.10;1.48;;;;;;;;;;5083441;28;20029;-56
2021/04/24 07:28:16;;;;;;;5.82;2.15;;;;;;;;;;5086792;28;20039;-48
2021/04/24 07:30:42;;;;;;;6.88;2.15;;;;;;;;;;5082709;28;20037;-57
2021/04/24 07:33:08;;;;;;;5.32;2.20;;;;;;;;;;5087571;28;20080;-55
2021/04/24 07:35:34;;;;;;;6.35;1.92;;;;;;;;;;5081614;28;20064;-51
2021/04/24 07:38:00;;;;;;;8.50;2.05;;;;;;;;;;5083302;28;20057;-53
2021/04/24 07:40:26;;;;;;;5.45;2.10;;;;;;;;;;5079252;28;20047;-52
2021/04/24 07:42:52;;;;;;;6.88;1.88;;;;;;;;;;5084565;28;20121;-54
2021/04/24 07:45:19;;;;;;;5.25;1.90;;;;;;;;;;5078889;28;20070;-51
2021/04/24 07:47:55;;;;;;;4.85;1.95;;;;;;;;;;5083917;28;20081;-56
2021/04/24 07:50:21;;;;;;;5.95;2.00;;;;;;;;;;5084634;28;20116;-54
2021/04/24 07:52:47;;;;;;;5.47;1.60;;;;;;;;;;5080986;28;20040;-52
2021/04/24 07:55:13;;;;;;;5.07;1.83;;;;;;;;;;5083502;28;20048;-52
2021/04/24 07:57:40;;;;;;;4.03;1.55;;;;;;;;;;5082631;28;20059;-54
2021/04/24 08:00:08;;;;;;;8.93;1.85;;;;;;;;;;5083932;28;20044;-55
2021/04/24 08:02:35;;;;;;;8.63;1.90;;;;;;;;;;5081527;28;20102;-54
2021/04/24 08:05:01;;;;;;;16.85;2.00;;;;;;;;;;5068648;28;20033;-55
2021/04/24 08:07:29;;;;;;;3.38;1.17;;;;;;;;;;5082127;28;20076;-52
2021/04/24 08:09:55;;;;;;;2.65;1.08;;;;;;;;;;5084134;28;20044;-51
2021/04/24 08:12:21;;;;;;;2.85;1.25;;;;;;;;;;5079753;28;20085;-48
2021/04/24 08:14:47;;;;;;;5.63;1.20;;;;;;;;;;5083823;28;20086;-53
2021/04/24 08:17:13;;;;;;;4.88;1.58;;;;;;;;;;5078331;28;20032;-54
2021/04/24 08:19:41;;;;;;;3.65;1.50;;;;;;;;;;5080875;28;20052;-53
2021/04/24 08:22:07;;;;;;;7.45;1.40;;;;;;;;;;5077604;28;20036;-55
2021/04/24 08:24:33;;;;;;;3.58;1.25;;;;;;;;;;5080667;28;20036;-58
2021/04/24 08:26:59;;;;;;;2.60;1.23;;;;;;;;;;5079946;28;20044;-55
2021/04/24 08:29:25;;;;;;;3.78;1.60;;;;;;;;;;5080799;28;20048;-50
2021/04/24 08:31:51;;;;;;;2.03;0.90;;;;;;;;;;5083123;28;20040;-53
2021/04/24 08:34:20;;;;;;;2.15;1.02;;;;;;;;;;5082025;28;20093;-51
2021/04/24 08:36:47;;;;;;;3.17;1.27;;;;;;;;;;5080598;28;20033;-54
2021/04/24 08:39:13;;;;;;;3.22;1.20;;;;;;;;;;5077614;28;20113;-56
2021/04/24 08:41:39;;;;;;;3.30;1.10;;;;;;;;;;5081203;28;20040;-58
2021/04/24 08:44:05;;;;;;;3.95;0.90;;;;;;;;;;5077950;28;20112;-57
2021/04/24 08:46:31;;;;;;;3.35;1.00;;;;;;;;;;5079581;28;20059;-54
2021/04/24 08:48:59;;;;;;;2.92;0.90;;;;;;;;;;5074534;28;20071;-59
2021/04/24 08:51:26;;;;;;;4.43;1.20;;;;;;;;;;5080032;28;20044;-55
2021/04/24 08:53:53;;;;;;;2.92;1.15;;;;;;;;;;5076597;28;20047;-53
2021/04/24 08:56:23;;;;;;;4.97;1.30;;;;;;;;;;5082696;28;20032;-56
2021/04/24 08:58:50;;;;;;;2.10;1.08;;;;;;;;;;5076317;28;20056;-55
2021/04/24 09:01:16;;;;;;;2.88;1.10;;;;;;;;;;5079968;28;20055;-55
2021/04/24 09:03:43;;;;;;;3.00;0.85;;;;;;;;;;5076156;28;20056;-58
2021/04/24 09:06:08;;;;;;;2.40;0.82;;;;;;;;;;5081159;28;20112;-56
2021/04/24 09:08:35;;;;;;;3.45;1.17;;;;;;;;;;5078255;28;20044;-55
2021/04/24 09:11:03;;;;;;;4.85;1.20;;;;;;;;;;5062089;28;20045;-57
2021/04/24 09:13:30;;;;;;;3.78;1.20;;;;;;;;;;5059771;28;20052;-54
2021/04/24 09:15:56;;;;;;;7.00;1.30;;;;;;;;;;5076872;28;20113;-53
2021/04/24 09:18:23;;;;;;;2.78;1.20;;;;;;;;;;5081282;28;20048;-56
2021/04/24 09:20:51;;;;;;;2.08;1.17;;;;;;;;;;5076328;28;20066;-55
2021/04/24 09:23:17;;;;;;;5.72;1.17;;;;;;;;;;5081069;28;20040;-58
2021/04/24 09:25:45;;;;;;;4.28;1.20;;;;;;;;;;5076852;28;20121;-55
2021/04/24 09:28:13;;;;;;;2.63;0.90;;;;;;;;;;5074496;28;20035;-54
2021/04/24 09:30:40;;;;;;;2.92;0.95;;;;;;;;;;5076947;28;20044;-57
2021/04/24 09:33:07;;;;;;;4.03;1.10;;;;;;;;;;5082506;28;20036;-57
2021/04/24 09:35:38;;;;;;;2.13;0.93;;;;;;;;;;5077295;28;20043;-56
2021/04/24 09:38:04;;;;;;;5.22;1.20;;;;;;;;;;5079537;28;20044;-56
2021/04/24 09:40:30;;;;;;;2.95;1.00;;;;;;;;;;5076240;28;20048;-57
2021/04/24 09:43:00;;;;;;;2.22;1.00;;;;;;;;;;5080728;28;20055;-57
2021/04/24 09:45:29;;;;;;;2.47;0.95;;;;;;;;;;5077231;28;20047;-59
2021/04/24 09:47:55;;;;;;;2.90;1.17;;;;;;;;;;5080594;28;20033;-59
2021/04/24 09:50:22;;;;;;;2.60;1.30;;;;;;;;;;5073948;28;20044;-57
2021/04/24 09:52:51;;;;;;;7.05;1.00;;;;;;;;;;5080093;28;20044;-59
2021/04/24 09:55:34;;;;;;;5.60;1.30;;;;;;;;;;5080250;28;20190;-53
2021/04/24 09:58:00;;;;;;;2.28;1.08;;;;;;;;;;5079242;28;20036;-55
2021/04/24 10:00:28;;;;;;;3.10;1.10;;;;;;;;;;5079926;28;20052;-50
2021/04/24 10:02:54;;;;;;;5.28;1.10;;;;;;;;;;5077928;28;20048;-54
2021/04/24 10:05:21;;;;;;;5.03;1.40;;;;;;;;;;5080943;28;20151;-52
2021/04/24 10:07:49;;;;;;;4.55;1.20;;;;;;;;;;5077884;28;20033;-55
2021/04/24 10:10:16;;;;;;;3.38;1.20;;;;;;;;;;5080384;28;20032;-53
2021/04/24 10:12:53;;;;;;;3.45;1.05;;;;;;;;;;5075396;28;20055;-53
2021/04/24 10:15:33;;;;;;;3.33;1.35;;;;;;;;;;5076379;28;20040;-55
2021/04/24 10:18:00;;;;;;;1.90;0.95;;;;;;;;;;5078284;28;20043;-50
2021/04/24 10:20:27;;;;;;;5.10;1.33;;;;;;;;;;5082466;28;20044;-54
2021/04/24 10:22:53;;;;;;;2.33;1.20;;;;;;;;;;5078384;28;20029;-53
2021/04/24 10:25:20;;;;;;;3.85;1.13;;;;;;;;;;5085678;28;20130;-54
2021/04/24 10:27:46;;;;;;;4.93;1.52;;;;;;;;;;5079539;28;20096;-52
2021/04/24 10:30:13;;;;;;;4.38;1.20;;;;;;;;;;5081959;28;20082;-56
2021/04/24 10:32:39;;;;;;;3.38;1.45;;;;;;;;;;5079390;28;20032;-50
2021/04/24 10:35:07;;;;;;;3.55;1.42;;;;;;;;;;5083763;28;20111;-52
2021/04/24 10:37:33;;;;;;;3.03;1.27;;;;;;;;;;5079869;28;20051;-54
2021/04/24 10:40:01;;;;;;;3.25;1.35;;;;;;;;;;5082696;28;20055;-54
2021/04/24 10:42:29;;;;;;;4.00;1.30;;;;;;;;;;5077670;28;20050;-56
2021/04/24 10:44:57;;;;;;;3.72;1.33;;;;;;;;;;5084250;28;20117;-52
2021/04/24 10:47:43;;;;;;;2.77;1.07;;;;;;;;;;5081082;28;20028;-53
2021/04/24 10:50:11;;;;;;;3.15;1.45;;;;;;;;;;5081148;28;20359;-54
2021/04/24 10:52:38;;;;;;;2.85;1.30;;;;;;;;;;5078755;28;20058;-55
2021/04/24 10:55:18;;;;;;;5.38;1.08;;;;;;;;;;5081755;28;20116;-58
2021/04/24 10:57:45;;;;;;;4.05;1.30;;;;;;;;;;5081122;28;20067;-53
2021/04/24 11:00:12;;;;;;;4.40;1.13;;;;;;;;;;5079195;28;20040;-52
2021/04/24 11:02:39;;;;;;;4.57;1.40;;;;;;;;;;5082072;28;20082;-53
2021/04/24 11:05:17;;;;;;;6.18;1.40;;;;;;;;;;5079212;28;20072;-57
2021/04/24 11:07:43;;;;;;;3.53;1.50;;;;;;;;;;5081956;28;20036;-56
2021/04/24 11:10:28;;;;;;;2.10;1.20;;;;;;;;;;5077500;28;20040;-52
2021/04/24 11:12:57;;;;;;;5.93;1.65;;;;;;;;;;5081036;28;20056;-55
2021/04/24 11:15:25;;;;;;;3.13;1.30;;;;;;;;;;5077580;28;20060;-52
2021/04/24 11:17:51;;;;;;;4.88;1.00;;;;;;;;;;5075353;28;20044;-54
2021/04/24 11:20:36;;;;;;;4.30;1.38;;;;;;;;;;5077412;28;20059;-55
2021/04/24 11:23:03;;;;;;;3.00;1.45;;;;;;;;;;5083422;28;20116;-57
2021/04/24 11:25:30;;;;;;;6.22;1.30;;;;;;;;;;5081237;28;20106;-56
2021/04/24 11:28:06;;;;;;;3.22;1.23;;;;;;;;;;5080435;28;20048;-57
2021/04/24 11:30:52;;;;;;;4.45;1.38;;;;;;;;;;5078377;28;20055;-56
2021/04/24 11:33:34;;;;;;;5.10;1.40;;;;;;;;;;5080055;28;20037;-56
2021/04/24 11:36:20;;;;;;;3.58;1.20;;;;;;;;;;5077528;28;20036;-60
2021/04/24 11:39:16;;;;;;;2.83;1.17;;;;;;;;;;5082788;28;20137;-57
2021/04/24 11:41:43;;;;;;;3.58;1.73;;;;;;;;;;5019813;28;20052;-58
2021/04/24 11:44:41;;;;;;;3.70;1.38;;;;;;;;;;5066943;28;20048;-57
2021/04/24 11:47:08;;;;;;;4.68;1.92;;;;;;;;;;5004577;28;20042;-58
2021/04/24 11:49:48;;;;;;;7.43;1.80;;;;;;;;;;5062578;28;20036;-55
2021/04/24 11:52:14;;;;;;;3.45;1.50;;;;;;;;;;5079764;28;20064;-55
2021/04/24 11:54:42;;;;;;;3.88;1.60;;;;;;;;;;5080953;28;20044;-57
2021/04/24 11:57:09;;;;;;;9.57;2.63;;;;;;;;;;5078291;28;20128;-57
2021/04/24 11:59:36;;;;;;;6.13;2.67;;;;;;;;;;5081079;28;20068;-55
2021/04/24 12:02:12;;;;;;;5.55;1.90;;;;;;;;;;5079381;28;20097;-55
2021/04/24 12:04:38;;;;;;;4.57;1.83;;;;;;;;;;5081441;28;20040;-57
2021/04/24 12:07:06;;;;;;;5.10;2.15;;;;;;;;;;5076291;28;20118;-58
2021/04/24 12:09:44;;;;;;;5.85;2.75;;;;;;;;;;5078179;27;20051;-56
2021/04/24 12:12:10;;;;;;;;;;;;;;;;;;5064191;28;20063;-57
2021/04/24 12:14:38;;;;;;;11.20;2.85;;;;;;;;;;5061647;28;19960;-55
2021/04/24 12:17:07;;;;;;;4.50;2.17;;;;;;;;;;5055845;28;20044;-59
2021/04/24 12:19:33;;;;;;;;;;;;;;;;;;5062838;28;20045;-55
2021/04/24 12:22:00;;;;;;;6.75;2.55;;;;;;;;;;5057425;28;19920;-53
2021/04/24 12:24:26;;;;;;;6.50;2.17;;;;;;;;;;5056418;28;20056;-51
2021/04/24 12:26:53;;;;;;;9.55;2.17;;;;;;;;;;5057542;28;20053;-53
2021/04/24 12:29:34;;;;;;;6.13;2.25;;;;;;;;;;5046830;28;20081;-52
2021/04/24 12:32:10;;;;;;;4.68;2.00;;;;;;;;;;5046321;28;20052;-54
2021/04/24 12:34:36;;;;;;;5.72;2.67;;;;;;;;;;5052874;28;20052;-52
2021/04/24 12:37:02;;;;;;;9.18;2.80;;;;;;;;;;5051650;28;20037;-53
2021/04/24 12:39:29;;;;;;;4.38;2.33;;;;;;;;;;5052063;28;20085;-54
2021/04/24 12:41:55;;;;;;;7.40;2.67;;;;;;;;;;5048032;28;20033;-55
2021/04/24 12:44:27;;;;;;;5.60;2.30;;;;;;;;;;5047540;28;20064;-52
2021/04/24 12:46:54;;;;;;;4.32;1.98;;;;;;;;;;5051796;28;20045;-55
2021/04/24 12:49:22;;;;;;;7.57;2.20;;;;;;;;;;5047442;28;20037;-50
2021/04/24 12:52:06;;;;;;;7.93;2.33;;;;;;;;;;5047765;28;20080;-55
2021/04/24 12:54:32;;;;;;;5.05;1.92;;;;;;;;;;5045373;28;20178;-56
2021/04/24 12:57:12;;;;;;;7.53;2.20;;;;;;;;;;5050414;28;20052;-56
2021/04/24 12:59:38;;;;;;;6.55;2.45;;;;;;;;;;5051966;28;20053;-56
2021/04/24 13:02:04;;;;;;;10.20;2.33;;;;;;;;;;5050392;28;20109;-57
2021/04/24 13:04:31;;;;;;;6.35;2.28;;;;;;;;;;5046658;28;20061;-55
2021/04/24 13:06:58;;;;;;;5.80;2.10;;;;;;;;;;5051197;28;20065;-56
2021/04/24 13:09:31;;;;;;;8.90;2.53;;;;;;;;;;5046523;28;20040;-57
2021/04/24 13:12:04;;;;;;;5.00;2.17;;;;;;;;;;5056970;28;20055;-56
2021/04/24 13:14:39;;;;;;;6.07;2.58;;;;;;;;;;5042992;28;20178;-58
2021/04/24 13:17:09;;;;;;;7.60;2.38;;;;;;;;;;5047791;28;20037;-57
2021/04/24 13:19:46;;;;;;;9.18;2.15;;;;;;;;;;5047411;28;20045;-55
2021/04/24 13:22:12;;;;;;;9.02;2.78;;;;;;;;;;5046754;28;20056;-58
2021/04/24 13:24:43;;;;;;;8.63;2.90;;;;;;;;;;5052765;28;20045;-54
2021/04/24 13:27:10;;;;;;;5.72;2.20;;;;;;;;;;5051621;28;20033;-55
2021/04/24 13:29:36;;;;;;;5.65;2.25;;;;;;;;;;5045599;28;20048;-57
2021/04/24 13:32:06;;;;;;;6.40;2.47;;;;;;;;;;5054024;28;22653;-55
2021/04/24 13:34:33;;;;;;;5.82;2.35;;;;;;;;;;5053029;28;20056;-56
2021/04/24 13:37:01;;;;;;;7.47;2.42;;;;;;;;;;5049015;28;20197;-55
2021/04/24 13:39:27;;;;;;;6.97;2.15;;;;;;;;;;5050841;28;20043;-57
2021/04/24 13:41:53;;;;;;;8.00;2.20;;;;;;;;;;5047974;28;20052;-54
2021/04/24 13:44:21;;;;;;;7.63;2.05;;;;;;;;;;5049499;28;20048;-58
2021/04/24 13:46:48;;;;;;;9.50;2.03;;;;;;;;;;5051289;28;20086;-56
2021/04/24 13:49:15;;;;;;;4.00;1.63;;;;;;;;;;5047235;28;20074;-55
2021/04/24 13:51:41;;;;;;;7.18;2.33;;;;;;;;;;5043214;28;20055;-57
2021/04/24 13:54:08;;;;;;;6.55;1.75;;;;;;;;;;5047918;28;20060;-55
2021/04/24 13:56:34;;;;;;;5.32;1.90;;;;;;;;;;5044965;28;20093;-54
2021/04/24 13:59:03;;;;;;;4.95;2.00;;;;;;;;;;5051481;28;20051;-57
2021/04/24 14:01:29;;;;;;;7.55;2.40;;;;;;;;;;5044926;28;20067;-57
2021/04/24 14:03:55;;;;;;;4.82;1.83;;;;;;;;;;5050596;28;20045;-57
2021/04/24 14:06:21;;;;;;;5.20;1.90;;;;;;;;;;5045962;28;20063;-54
2021/04/24 14:08:47;;;;;;;5.20;1.88;;;;;;;;;;5053574;28;20086;-57
2021/04/24 14:11:13;;;;;;;6.70;2.10;;;;;;;;;;5049386;28;20137;-55
2021/04/24 14:13:39;;;;;;;7.05;2.20;;;;;;;;;;5045054;28;20052;-57
2021/04/24 14:16:07;;;;;;;7.25;2.50;;;;;;;;;;5047274;28;20065;-57
2021/04/24 14:18:34;;;;;;;16.37;2.80;;;;;;;;;;5054568;28;20049;-57
2021/04/24 14:21:00;;;;;;;9.38;2.10;;;;;;;;;;5047142;28;20262;-57
2021/04/24 14:23:26;;;;;;;7.25;1.98;;;;;;;;;;5050941;28;20055;-56
2021/04/24 14:25:54;;;;;;;6.90;1.83;;;;;;;;;;5051236;28;20041;-53
2021/04/24 14:28:21;;;;;;;6.03;1.95;;;;;;;;;;5050233;28;20029;-55
2021/04/24 14:30:47;;;;;;;10.30;2.20;;;;;;;;;;5049921;28;20056;-54
2021/04/24 14:33:13;;;;;;;7.38;1.80;;;;;;;;;;5049191;28;20048;-53
2021/04/24 14:35:39;;;;;;;6.72;1.75;;;;;;;;;;5047727;28;20037;-56
2021/04/24 14:38:05;;;;;;;8.48;1.77;;;;;;;;;;5048139;28;20052;-57
2021/04/24 14:40:30;;;;;;;5.88;1.67;;;;;;;;;;5049714;28;20093;-53
2021/04/24 14:42:57;;;;;;;8.00;1.45;;;;;;;;;;5044578;28;20041;-56